Airfield :
LOGIN :

Register | Disclaimer

   EN    FR    IT 

 










Legend :    VFR   Marginal VFR   IFR   Intensive IFR   Very Intensive IFR
Visi :
Ceiling :
>= 8 km
>= 3000ft
5 to 8 km
1000 to 3000 ft
1500m to 5 km
500 to 1000 ft
800 to 1500m
200 to 500 ft
< 800m
< 200 ft
Symbols :   Thunderstorms  Fog  Heavy snow  Heavy precipitations  Wind > 20 kt
SIGMETs :     Misc.  Thunderstorms  Icing  Turbulence  Mountain Waves  Volcanic Ashes






- Airport Elevation : 25 ft
- IATA code : QCY


EGXC - RAF Coningsby

CURRENT METAR :
  • 270820Z 25006KT 5000 RASN BKN004 BKN006 BKN010 02/01 Q0997 TEMPO 3000 RASN RMK YLO2 TEMPO YLO2

EXPIRED METARs :
  • 270750Z 23005KT 5000 RASN BKN005 BKN010 OVC020 02/01 Q0997 TEMPO 3000 RASN SCT004 RMK YLO1 TEMPO YLO2
  • 270720Z 22005KT 9999 -RA BKN010 OVC020 02/01 Q0997 TEMPO 5000 RA SCT006 RMK GRN TEMPO YLO1
  • 270650Z 21005KT 9999 -RA FEW014 SCT050 OVC080 02/01 Q0997 TEMPO 5000 RA SCT014 RMK BLU TEMPO GRN
  • 270550Z 20006KT 9999 -RA SCT050 OVC070 02/01 Q0997 RMK BLU

TAF TAF EGXC
Valid from the 27 at 06:00 until the 28 at 00:00 UTC


270447Z 2706/2724 19010KT 9999 BKN025
TEMPO 2706/2712 7000 -RA SCT010
PROB40
TEMPO 2706/2711 2000 RASN BKN004
PROB30
TEMPO 2706/2710 1500 SN BKN002
BECMG 2710/2713 29015KT
TEMPO 2712/2717 30018G28KT



MET'MAP, your aeronautical weather chart ! - Copyright ORBIFLY December 2007 - Disclaimer

ORBIFLY MET'MAP TEAM :

Programming & Development : Alexandra Zaïnal
Concept & original design : Baudouin d'Aumeries
Assistance for programming : Marc-Olivier Méhu
Technical & hardware support : Manuel Goepfert

Contact : metmap@orbifly.com




SOURCES & CREDITS :

   NOAA